createdAt,value
2018-12-07T00:00:31.116Z,90.47
2018-12-07T00:01:31.100Z,90.67
2018-12-07T00:02:31.090Z,90.71
2018-12-07T00:03:31.098Z,91.39
2018-12-07T00:04:31.086Z,91.18
2018-12-07T00:05:31.057Z,91.28
2018-12-07T00:06:31.041Z,91.33
2018-12-07T00:07:31.087Z,91.43
2018-12-07T00:08:31.046Z,91.63
2018-12-07T00:09:31.009Z,91.53
2018-12-07T00:10:30.995Z,91.02
2018-12-07T00:11:30.984Z,91.53
2018-12-07T00:12:30.984Z,91.43
2018-12-07T00:13:31.002Z,91.33
2018-12-07T00:14:30.960Z,91.43
2018-12-07T00:15:30.980Z,92.24
2018-12-07T00:16:30.943Z,92.35
2018-12-07T00:17:30.922Z,92.14
2018-12-07T00:18:30.908Z,92.04
2018-12-07T00:19:30.903Z,92.35
2018-12-07T00:20:30.889Z,92.04
2018-12-07T00:21:30.906Z,91.74
2018-12-07T00:22:30.875Z,92.04
2018-12-07T00:23:30.855Z,92.35
2018-12-07T00:24:30.878Z,92.45
2018-12-07T00:25:30.841Z,91.94
2018-12-07T00:26:30.850Z,92.14
2018-12-07T00:27:30.823Z,91.94
2018-12-07T00:28:30.804Z,92.55
2018-12-07T00:29:30.795Z,92.14
2018-12-07T00:30:30.806Z,92.45
2018-12-07T00:31:30.768Z,92.35
2018-12-07T00:32:30.759Z,92.35
2018-12-07T00:33:30.792Z,92.14
2018-12-07T00:34:30.742Z,91.53
2018-12-07T00:35:30.730Z,91.12
2018-12-07T00:36:30.763Z,90.71
2018-12-07T00:37:30.710Z,90.71
2018-12-07T00:38:30.691Z,90.71
2018-12-07T00:39:30.705Z,90.61
2018-12-07T00:40:30.685Z,89.59
2018-12-07T00:41:30.684Z,88.84
2018-12-07T00:42:30.646Z,88.63
2018-12-07T00:43:30.640Z,88.73
2018-12-07T00:44:30.636Z,88.63
2018-12-07T00:45:30.629Z,89.14
2018-12-07T00:46:30.615Z,88.93
2018-12-07T00:47:30.607Z,88.63
2018-12-07T00:48:30.585Z,88.28
2018-12-07T00:49:30.586Z,87.98
2018-12-07T00:50:30.588Z,87.98
2018-12-07T00:51:30.547Z,88.90
2018-12-07T00:52:30.550Z,88.28
2018-12-07T00:53:30.531Z,88.32
2018-12-07T00:54:30.527Z,88.79
2018-12-07T00:55:30.518Z,87.88
2018-12-07T00:56:30.520Z,87.37
2018-12-07T00:57:30.491Z,88.08
2018-12-07T00:58:30.482Z,88.18
2018-12-07T00:59:30.491Z,87.88
2018-12-07T01:00:30.459Z,87.77
2018-12-07T01:01:30.466Z,87.26
2018-12-07T01:02:30.462Z,87.77
2018-12-07T01:03:30.446Z,87.26
2018-12-07T01:04:30.425Z,87.37
2018-12-07T01:05:30.405Z,87.47
2018-12-07T01:06:30.391Z,87.16
2018-12-07T01:07:30.394Z,87.98
2018-12-07T01:08:30.425Z,87.88
2018-12-07T01:09:30.358Z,87.77
2018-12-07T01:10:30.347Z,87.37
2018-12-07T01:11:30.351Z,87.26
2018-12-07T01:12:30.336Z,87.26
2018-12-07T01:13:30.339Z,87.26
2018-12-07T01:14:30.308Z,87.77
2018-12-07T01:15:30.286Z,87.47
2018-12-07T01:16:30.324Z,87.37
2018-12-07T01:17:30.272Z,87.26
2018-12-07T01:18:30.265Z,87.57
2018-12-07T01:19:30.241Z,87.26
2018-12-07T01:20:30.231Z,87.84
2018-12-07T01:21:30.339Z,87.63
2018-12-07T01:22:30.237Z,87.02
2018-12-07T01:23:30.206Z,87.43
2018-12-07T01:24:30.198Z,87.12
2018-12-07T01:25:30.212Z,87.02
2018-12-07T01:26:30.169Z,87.16
2018-12-07T01:27:30.173Z,87.02
2018-12-07T01:28:30.158Z,86.82
2018-12-07T01:29:30.136Z,87.12
2018-12-07T01:30:30.126Z,87.43
2018-12-07T01:31:30.107Z,86.61
2018-12-07T01:32:30.125Z,86.92
2018-12-07T01:33:30.090Z,87.32
2018-12-07T01:34:30.082Z,86.82
2018-12-07T01:35:30.084Z,87.63
2018-12-07T01:36:30.062Z,87.47
2018-12-07T01:37:30.062Z,87.73
2018-12-07T01:38:30.033Z,86.92
2018-12-07T01:39:30.033Z,87.53
2018-12-07T01:40:30.014Z,87.23
2018-12-07T01:41:30.004Z,87.32
2018-12-07T01:42:30.010Z,87.43
2018-12-07T01:43:29.995Z,87.12
2018-12-07T01:44:29.979Z,87.43
2018-12-07T01:45:29.997Z,87.23
2018-12-07T01:46:29.956Z,87.43
2018-12-07T01:47:29.944Z,87.12
2018-12-07T01:48:29.937Z,87.02
2018-12-07T01:49:29.924Z,87.32
2018-12-07T01:50:29.900Z,87.43
2018-12-07T01:51:29.889Z,87.53
2018-12-07T01:52:29.883Z,87.43
2018-12-07T01:53:29.900Z,87.23
2018-12-07T01:54:29.958Z,87.73
2018-12-07T01:55:29.873Z,87.43
2018-12-07T01:56:29.847Z,87.23
2018-12-07T01:57:29.823Z,87.23
2018-12-07T01:58:29.842Z,88.04
2018-12-07T01:59:29.837Z,87.12
2018-12-07T02:00:29.794Z,87.84
2018-12-07T02:01:29.780Z,87.43
2018-12-07T02:02:29.793Z,87.63
2018-12-07T02:03:29.763Z,87.84
2018-12-07T02:04:29.746Z,87.53
2018-12-07T02:05:29.742Z,87.73
2018-12-07T02:06:29.731Z,87.98
2018-12-07T02:07:29.735Z,88.28
2018-12-07T02:08:29.721Z,87.73
2018-12-07T02:09:29.717Z,88.55
2018-12-07T02:10:29.685Z,87.73
2018-12-07T02:11:29.676Z,87.98
2018-12-07T02:12:29.665Z,87.53
2018-12-07T02:13:29.694Z,87.94
2018-12-07T02:14:29.649Z,87.73
2018-12-07T02:15:29.625Z,87.73
2018-12-07T02:16:29.615Z,87.84
2018-12-07T02:17:29.631Z,88.34
2018-12-07T02:18:29.657Z,88.34
2018-12-07T02:19:29.610Z,87.94
2018-12-07T02:20:29.583Z,88.04
2018-12-07T02:21:29.567Z,87.37
2018-12-07T02:22:29.552Z,87.88
2018-12-07T02:23:29.548Z,88.18
2018-12-07T02:24:29.538Z,87.94
2018-12-07T02:25:29.546Z,87.57
2018-12-07T02:26:29.511Z,87.84
2018-12-07T02:27:29.503Z,88.49
2018-12-07T02:28:29.499Z,87.77
2018-12-07T02:29:29.487Z,87.63
2018-12-07T02:30:29.472Z,87.98
2018-12-07T02:31:29.479Z,87.32
2018-12-07T02:32:29.445Z,87.73
2018-12-07T02:33:29.440Z,87.57
2018-12-07T02:34:29.441Z,87.73
2018-12-07T02:35:29.418Z,87.16
2018-12-07T02:36:29.397Z,86.51
2018-12-07T02:37:29.387Z,86.86
2018-12-07T02:38:29.383Z,86.61
2018-12-07T02:39:29.371Z,86.92
2018-12-07T02:40:29.407Z,86.51
2018-12-07T02:41:29.340Z,86.41
2018-12-07T02:42:29.331Z,86.10
2018-12-07T02:43:29.322Z,85.90
2018-12-07T02:44:29.315Z,86.00
2018-12-07T02:45:29.324Z,85.80
2018-12-07T02:46:29.295Z,85.28
2018-12-07T02:47:29.288Z,84.88
2018-12-07T02:48:29.307Z,84.88
2018-12-07T02:49:29.259Z,84.06
2018-12-07T02:50:29.254Z,84.78
2018-12-07T02:51:29.250Z,83.76
2018-12-07T02:52:29.227Z,83.25
2018-12-07T02:53:29.209Z,83.76
2018-12-07T02:54:29.218Z,83.56
2018-12-07T02:55:29.200Z,83.76
2018-12-07T02:56:29.192Z,83.96
2018-12-07T02:57:29.168Z,83.25
2018-12-07T02:58:29.166Z,82.88
2018-12-07T02:59:29.188Z,83.04
2018-12-07T03:00:29.145Z,83.15
2018-12-07T03:01:29.132Z,81.62
2018-12-07T03:02:29.125Z,82.54
2018-12-07T03:03:29.106Z,83.25
2018-12-07T03:04:29.090Z,82.43
2018-12-07T03:05:29.097Z,82.13
2018-12-07T03:06:29.085Z,82.23
2018-12-07T03:07:29.073Z,82.23
2018-12-07T03:08:29.042Z,81.72
2018-12-07T03:09:29.067Z,82.23
2018-12-07T03:10:29.030Z,82.84
2018-12-07T03:11:29.027Z,82.27
2018-12-07T03:12:29.003Z,82.27
2018-12-07T03:13:28.993Z,82.57
2018-12-07T03:14:28.976Z,82.23
2018-12-07T03:15:28.989Z,82.33
2018-12-07T03:16:28.970Z,83.15
2018-12-07T03:17:28.984Z,82.13
2018-12-07T03:18:28.958Z,82.23
2018-12-07T03:19:28.925Z,83.35
2018-12-07T03:20:28.913Z,82.74
2018-12-07T03:21:28.924Z,82.94
2018-12-07T03:22:28.912Z,82.98
2018-12-07T03:23:28.896Z,83.25
2018-12-07T03:24:28.873Z,83.76
2018-12-07T03:25:28.897Z,84.11
2018-12-07T03:26:28.844Z,84.00
2018-12-07T03:27:28.853Z,83.90
2018-12-07T03:28:28.824Z,84.00
2018-12-07T03:29:28.822Z,84.20
2018-12-07T03:30:28.847Z,83.59
2018-12-07T03:31:28.807Z,83.80
2018-12-07T03:32:28.801Z,83.90
2018-12-07T03:33:28.802Z,84.51
2018-12-07T03:34:28.767Z,85.06
2018-12-07T03:35:28.786Z,84.00
2018-12-07T03:36:28.749Z,84.04
2018-12-07T03:37:28.725Z,84.55
2018-12-07T03:38:28.752Z,84.75
2018-12-07T03:39:28.705Z,84.75
2018-12-07T03:40:28.749Z,85.57
2018-12-07T03:41:28.683Z,85.27
2018-12-07T03:42:28.685Z,84.55
2018-12-07T03:43:28.697Z,85.88
2018-12-07T03:44:28.653Z,85.68
2018-12-07T03:45:28.644Z,85.98
2018-12-07T03:46:28.624Z,85.57
2018-12-07T03:47:28.637Z,85.27
2018-12-07T03:48:28.612Z,85.57
2018-12-07T03:49:28.599Z,84.75
2018-12-07T03:50:28.603Z,85.37
2018-12-07T03:51:28.570Z,85.47
2018-12-07T03:52:28.571Z,84.86
2018-12-07T03:53:28.591Z,84.75
2018-12-07T03:54:28.557Z,84.66
2018-12-07T03:55:28.552Z,85.06
2018-12-07T03:56:28.521Z,84.75
2018-12-07T03:57:28.508Z,84.86
2018-12-07T03:58:28.517Z,85.37
2018-12-07T03:59:28.485Z,84.75
2018-12-07T04:00:28.489Z,84.96
2018-12-07T04:01:28.488Z,84.96
2018-12-07T04:02:28.460Z,85.41
2018-12-07T04:03:28.480Z,85.06
2018-12-07T04:04:28.433Z,85.57
2018-12-07T04:05:28.433Z,84.75
2018-12-07T04:06:28.435Z,85.82
2018-12-07T04:07:28.420Z,85.21
2018-12-07T04:08:28.388Z,85.82
2018-12-07T04:09:28.385Z,86.22
2018-12-07T04:10:28.371Z,85.82
2018-12-07T04:11:28.353Z,86.73
2018-12-07T04:12:28.362Z,87.45
2018-12-07T04:13:28.340Z,87.35
2018-12-07T04:14:28.334Z,86.22
2018-12-07T04:15:28.316Z,86.12
2018-12-07T04:16:28.346Z,87.14
2018-12-07T04:17:28.300Z,87.08
2018-12-07T04:18:28.300Z,87.55
2018-12-07T04:19:28.265Z,88.10
2018-12-07T04:20:28.270Z,87.65
2018-12-07T04:21:28.246Z,88.26
2018-12-07T04:22:28.262Z,89.12
2018-12-07T04:23:28.224Z,88.88
2018-12-07T04:24:28.212Z,89.02
2018-12-07T04:25:28.212Z,89.12
2018-12-07T04:26:28.202Z,89.12
2018-12-07T04:27:28.193Z,89.84
2018-12-07T04:28:28.210Z,89.94
2018-12-07T04:29:28.159Z,90.45
2018-12-07T04:30:28.146Z,89.84
2018-12-07T04:31:28.140Z,90.55
2018-12-07T04:32:28.123Z,90.49
2018-12-07T04:33:28.124Z,90.49
2018-12-07T04:34:28.138Z,91.11
2018-12-07T04:35:28.096Z,91.47
2018-12-07T04:36:28.083Z,91.20
2018-12-07T04:37:28.112Z,91.52
2018-12-07T04:38:28.090Z,91.52
2018-12-07T04:39:28.099Z,91.72
2018-12-07T04:40:28.066Z,91.82
2018-12-07T04:41:28.039Z,91.82
2018-12-07T04:42:28.042Z,92.33
2018-12-07T04:43:28.010Z,92.17
2018-12-07T04:44:27.995Z,91.96
2018-12-07T04:45:28.012Z,92.17
2018-12-07T04:46:28.012Z,92.23
2018-12-07T04:47:27.967Z,92.99
2018-12-07T04:48:27.953Z,93.19
2018-12-07T04:49:27.944Z,93.19
2018-12-07T04:50:27.975Z,93.50
2018-12-07T04:51:27.933Z,93.50
2018-12-07T04:52:27.911Z,93.09
2018-12-07T04:53:27.898Z,93.09
2018-12-07T04:54:27.902Z,93.60
2018-12-07T04:55:27.900Z,93.29
2018-12-07T04:56:27.895Z,93.70
2018-12-07T04:57:27.886Z,93.80
2018-12-07T04:58:27.853Z,93.50
2018-12-07T04:59:27.842Z,93.50
2018-12-07T05:00:27.864Z,93.50
2018-12-07T05:01:27.833Z,93.60
2018-12-07T05:02:27.814Z,94.11
2018-12-07T05:03:27.789Z,93.91
2018-12-07T05:04:27.786Z,94.52
2018-12-07T05:05:27.766Z,94.15
2018-12-07T05:06:27.770Z,94.06
2018-12-07T05:07:27.784Z,94.15
2018-12-07T05:08:27.740Z,94.26
2018-12-07T05:09:27.729Z,94.26
2018-12-07T05:10:27.709Z,94.46
2018-12-07T05:11:27.702Z,94.67
2018-12-07T05:12:27.706Z,94.67
2018-12-07T05:13:27.701Z,94.97
2018-12-07T05:14:27.668Z,94.97
2018-12-07T05:15:27.667Z,94.67
2018-12-07T05:16:27.643Z,95.07
2018-12-07T05:17:27.682Z,94.67
2018-12-07T05:18:27.644Z,95.44
2018-12-07T05:19:27.618Z,95.38
2018-12-07T05:20:27.607Z,95.18
2018-12-07T05:21:27.601Z,95.18
2018-12-07T05:22:27.573Z,95.18
2018-12-07T05:23:27.578Z,95.18
2018-12-07T05:24:27.559Z,95.48
2018-12-07T05:25:27.572Z,95.59
2018-12-07T05:26:27.541Z,95.48
2018-12-07T05:27:27.550Z,95.79
2018-12-07T05:28:27.526Z,95.59
2018-12-07T05:29:27.509Z,96.10
2018-12-07T05:30:27.501Z,95.59
2018-12-07T05:31:27.486Z,95.28
2018-12-07T05:32:27.479Z,96.20
2018-12-07T05:33:27.488Z,96.20
2018-12-07T05:34:27.461Z,95.89
2018-12-07T05:35:27.445Z,95.89
2018-12-07T05:36:27.422Z,95.94
2018-12-07T05:37:27.431Z,95.69
2018-12-07T05:38:27.417Z,96.20
2018-12-07T05:39:28.377Z,96.71
2018-12-07T05:40:27.385Z,96.71
2018-12-07T05:41:27.392Z,96.75
2018-12-07T05:42:27.359Z,96.75
2018-12-07T05:43:27.366Z,96.45
2018-12-07T05:44:27.347Z,96.96
2018-12-07T05:45:27.339Z,97.37
2018-12-07T05:46:27.338Z,97.22
2018-12-07T05:47:27.309Z,97.57
2018-12-07T05:48:27.327Z,97.37
2018-12-07T05:49:27.288Z,97.78
2018-12-07T05:50:27.277Z,97.12
2018-12-07T05:51:27.265Z,96.51
2018-12-07T05:52:27.265Z,96.75
2018-12-07T05:53:27.250Z,96.61
2018-12-07T05:54:27.229Z,96.86
2018-12-07T05:55:27.222Z,97.16
2018-12-07T05:56:27.242Z,96.86
2018-12-07T05:57:27.202Z,96.14
2018-12-07T05:58:27.211Z,95.84
2018-12-07T05:59:27.179Z,96.14
2018-12-07T06:00:27.176Z,96.34
2018-12-07T06:01:27.163Z,95.73
2018-12-07T06:02:27.145Z,95.73
2018-12-07T06:03:27.193Z,95.59
2018-12-07T06:04:27.127Z,95.53
2018-12-07T06:05:27.109Z,95.73
2018-12-07T06:06:27.108Z,95.63
2018-12-07T06:07:27.094Z,95.79
2018-12-07T06:08:27.071Z,95.48
2018-12-07T06:09:27.101Z,95.73
2018-12-07T06:10:27.061Z,96.14
2018-12-07T06:11:27.069Z,96.00
2018-12-07T06:12:27.042Z,95.38
2018-12-07T06:13:27.106Z,95.59
2018-12-07T06:14:27.032Z,94.97
2018-12-07T06:15:27.002Z,94.81
2018-12-07T06:16:27.073Z,94.81
2018-12-07T06:17:26.992Z,94.77
2018-12-07T06:18:26.969Z,94.26
2018-12-07T06:19:26.962Z,94.26
2018-12-07T06:20:26.952Z,93.95
2018-12-07T06:21:26.980Z,93.95
2018-12-07T06:22:26.931Z,93.95
2018-12-07T06:23:26.918Z,93.65
2018-12-07T06:24:26.928Z,93.54
2018-12-07T06:25:26.926Z,93.33
2018-12-07T06:26:26.893Z,93.65
2018-12-07T06:27:26.883Z,92.83
2018-12-07T06:28:26.861Z,92.72
2018-12-07T06:29:26.868Z,92.72
2018-12-07T06:30:26.845Z,92.62
2018-12-07T06:31:26.826Z,92.01
2018-12-07T06:32:26.814Z,92.27
2018-12-07T06:33:26.807Z,92.21
2018-12-07T06:34:26.819Z,92.58
2018-12-07T06:35:26.853Z,92.32
2018-12-07T06:36:26.777Z,92.37
2018-12-07T06:37:26.767Z,92.37
2018-12-07T06:38:26.758Z,92.47
2018-12-07T06:39:26.739Z,92.07
2018-12-07T06:40:26.794Z,90.94
2018-12-07T06:41:26.742Z,90.84
2018-12-07T06:42:26.712Z,91.05
2018-12-07T06:43:26.706Z,92.37
2018-12-07T06:44:26.697Z,91.76
2018-12-07T06:45:26.688Z,92.23
2018-12-07T06:46:26.666Z,91.86
2018-12-07T06:47:26.708Z,90.64
2018-12-07T06:48:26.655Z,91.05
2018-12-07T06:49:26.630Z,90.53
2018-12-07T06:50:26.628Z,90.64
2018-12-07T06:51:26.628Z,90.23
2018-12-07T06:52:26.610Z,90.02
2018-12-07T06:53:26.596Z,90.23
2018-12-07T06:54:26.575Z,90.90
2018-12-07T06:55:26.568Z,90.94
2018-12-07T06:56:26.561Z,91.20
2018-12-07T06:57:26.536Z,91.56
2018-12-07T06:58:26.541Z,90.59
2018-12-07T06:59:26.520Z,90.80
2018-12-07T07:00:26.529Z,91.15
2018-12-07T07:01:26.504Z,90.12
2018-12-07T07:02:26.507Z,91.00
2018-12-07T07:03:26.517Z,90.70
2018-12-07T07:04:26.460Z,90.39
2018-12-07T07:05:26.474Z,90.29
2018-12-07T07:06:26.463Z,90.39
2018-12-07T07:07:26.433Z,90.59
2018-12-07T07:08:26.427Z,90.49
2018-12-07T07:09:26.451Z,90.49
2018-12-07T07:10:26.418Z,89.58
2018-12-07T07:11:26.404Z,90.19
2018-12-07T07:12:26.388Z,90.49
2018-12-07T07:13:26.370Z,90.19
2018-12-07T07:14:26.358Z,91.00
2018-12-07T07:15:26.372Z,91.20
2018-12-07T07:16:26.354Z,91.61
2018-12-07T07:17:26.334Z,90.49
2018-12-07T07:18:26.312Z,90.39
2018-12-07T07:19:26.381Z,90.59
2018-12-07T07:20:26.311Z,90.59
2018-12-07T07:21:26.285Z,90.39
2018-12-07T07:22:26.312Z,90.29
2018-12-07T07:23:26.253Z,90.90
2018-12-07T07:24:26.295Z,90.39
2018-12-07T07:25:26.242Z,91.00
2018-12-07T07:26:26.242Z,90.49
2018-12-07T07:27:26.245Z,90.80
2018-12-07T07:28:26.217Z,90.49
2018-12-07T07:29:26.193Z,90.49
2018-12-07T07:30:26.201Z,89.67
2018-12-07T07:31:26.171Z,90.59
2018-12-07T07:32:26.170Z,89.78
2018-12-07T07:33:26.162Z,89.88
2018-12-07T07:34:26.135Z,89.47
2018-12-07T07:35:26.131Z,89.78
2018-12-07T07:36:26.117Z,89.88
2018-12-07T07:37:26.131Z,90.08
2018-12-07T07:38:26.094Z,89.98
2018-12-07T07:39:26.083Z,89.98
2018-12-07T07:40:26.073Z,89.47
2018-12-07T07:41:26.052Z,89.67
2018-12-07T07:42:26.073Z,89.98
2018-12-07T07:43:26.064Z,89.88
2018-12-07T07:44:26.041Z,89.84
2018-12-07T07:45:26.026Z,89.23
2018-12-07T07:46:26.052Z,88.65
2018-12-07T07:47:25.996Z,88.92
2018-12-07T07:48:26.024Z,88.82
2018-12-07T07:49:25.975Z,89.23
2018-12-07T07:50:25.981Z,89.73
2018-12-07T07:51:25.948Z,88.96
2018-12-07T07:52:25.942Z,89.26
2018-12-07T07:53:25.929Z,89.23
2018-12-07T07:54:25.981Z,88.82
2018-12-07T07:55:25.905Z,88.92
2018-12-07T07:56:25.910Z,88.71
2018-12-07T07:57:25.900Z,88.82
2018-12-07T07:58:25.882Z,89.32
2018-12-07T07:59:25.867Z,89.43
2018-12-07T08:00:25.852Z,89.32
2018-12-07T08:01:25.838Z,88.61
2018-12-07T08:02:25.832Z,88.92
2018-12-07T08:03:25.819Z,88.92
2018-12-07T08:04:25.816Z,88.96
2018-12-07T08:05:25.806Z,88.92
2018-12-07T08:06:25.789Z,88.96
2018-12-07T08:07:25.793Z,88.96
2018-12-07T08:08:25.759Z,88.92
2018-12-07T08:09:25.760Z,89.32
2018-12-07T08:10:25.768Z,88.71
2018-12-07T08:11:25.744Z,89.02
2018-12-07T08:12:25.726Z,89.02
2018-12-07T08:13:25.709Z,89.32
2018-12-07T08:14:25.698Z,89.02
2018-12-07T08:15:25.718Z,89.12
2018-12-07T08:16:25.681Z,89.12
2018-12-07T08:17:25.679Z,89.12
2018-12-07T08:18:25.672Z,88.61
2018-12-07T08:19:25.657Z,89.06
2018-12-07T08:20:25.644Z,89.12
2018-12-07T08:21:25.622Z,89.02
2018-12-07T08:22:25.611Z,88.96
2018-12-07T08:23:25.653Z,88.10
2018-12-07T08:24:25.612Z,89.23
2018-12-07T08:25:25.574Z,88.82
2018-12-07T08:26:25.563Z,88.00
2018-12-07T08:27:25.555Z,89.12
2018-12-07T08:28:25.543Z,88.71
2018-12-07T08:29:25.574Z,88.45
2018-12-07T08:30:25.550Z,88.31
2018-12-07T08:31:25.515Z,88.41
2018-12-07T08:32:25.504Z,87.90
2018-12-07T08:33:25.482Z,88.10
2018-12-07T08:34:25.477Z,88.00
2018-12-07T08:35:25.496Z,87.59
2018-12-07T08:36:25.466Z,88.41
2018-12-07T08:37:25.463Z,88.10
2018-12-07T08:38:25.434Z,87.90
2018-12-07T08:39:25.430Z,87.49
2018-12-07T08:40:25.405Z,87.79
2018-12-07T08:41:25.485Z,87.59
2018-12-07T08:42:25.407Z,87.38
2018-12-07T08:43:25.378Z,87.38
2018-12-07T08:44:25.380Z,87.38
2018-12-07T08:45:25.357Z,88.17
2018-12-07T08:46:25.347Z,87.49
2018-12-07T08:47:25.347Z,87.65
2018-12-07T08:48:25.329Z,87.38
2018-12-07T08:49:25.314Z,86.88
2018-12-07T08:50:25.357Z,86.77
2018-12-07T08:51:25.289Z,87.45
2018-12-07T08:52:25.307Z,87.24
2018-12-07T08:53:25.277Z,87.04
2018-12-07T08:54:25.264Z,87.45
2018-12-07T08:55:25.276Z,86.63
2018-12-07T08:56:25.240Z,87.35
2018-12-07T08:57:25.232Z,87.55
2018-12-07T08:58:25.230Z,87.55
2018-12-07T08:59:25.198Z,86.83
2018-12-07T09:00:25.190Z,87.04
2018-12-07T09:01:25.182Z,87.14
2018-12-07T09:02:25.168Z,87.45
2018-12-07T09:03:25.166Z,87.65
2018-12-07T09:04:25.159Z,87.04
2018-12-07T09:05:25.147Z,87.04
2018-12-07T09:06:25.127Z,87.35
2018-12-07T09:07:25.168Z,86.33
2018-12-07T09:08:25.123Z,86.83
2018-12-07T09:09:25.096Z,86.73
2018-12-07T09:10:25.092Z,86.94
2018-12-07T09:11:25.069Z,86.94
2018-12-07T09:12:25.055Z,86.94
2018-12-07T09:13:25.049Z,86.94
2018-12-07T09:14:25.050Z,87.14
2018-12-07T09:15:25.036Z,86.43
2018-12-07T09:16:25.032Z,86.83
2018-12-07T09:17:25.017Z,86.94
2018-12-07T09:18:25.007Z,86.94
2018-12-07T09:19:24.978Z,87.04
2018-12-07T09:20:26.559Z,86.73
2018-12-07T09:21:24.966Z,86.22
2018-12-07T09:22:24.966Z,86.83
2018-12-07T09:23:24.952Z,86.12
2018-12-07T09:24:24.953Z,86.12
2018-12-07T09:25:24.912Z,86.22
2018-12-07T09:26:24.904Z,86.83
2018-12-07T09:27:24.898Z,86.63
2018-12-07T09:28:24.937Z,85.51
2018-12-07T09:29:24.887Z,86.22
2018-12-07T09:30:24.859Z,85.21
2018-12-07T09:31:24.856Z,85.77
2018-12-07T09:32:24.852Z,85.71
2018-12-07T09:33:24.839Z,85.27
2018-12-07T09:34:24.844Z,85.30
2018-12-07T09:35:24.807Z,85.41
2018-12-07T09:36:24.808Z,85.21
2018-12-07T09:37:24.787Z,85.00
2018-12-07T09:38:24.805Z,85.71
2018-12-07T09:39:24.764Z,85.21
2018-12-07T09:40:24.765Z,85.27
2018-12-07T09:41:24.772Z,85.57
2018-12-07T09:42:24.734Z,84.90
2018-12-07T09:43:24.723Z,84.75
2018-12-07T09:44:24.710Z,85.37
2018-12-07T09:45:24.726Z,85.06
2018-12-07T09:46:24.710Z,85.68
2018-12-07T09:47:24.680Z,85.47
2018-12-07T09:48:24.672Z,85.57
2018-12-07T09:49:24.655Z,85.06
2018-12-07T09:50:24.645Z,85.27
2018-12-07T09:51:24.671Z,85.47
2018-12-07T09:52:24.658Z,84.86
2018-12-07T09:53:24.609Z,84.86
2018-12-07T09:54:24.599Z,84.86
2018-12-07T09:55:24.589Z,85.00
2018-12-07T09:56:24.582Z,84.55
2018-12-07T09:57:24.574Z,84.55
2018-12-07T09:58:24.571Z,85.47
2018-12-07T09:59:24.547Z,85.27
2018-12-07T10:00:24.534Z,84.69
2018-12-07T10:01:24.583Z,84.96
2018-12-07T10:02:24.531Z,83.94
2018-12-07T10:03:24.513Z,85.10
2018-12-07T10:04:24.496Z,84.75
2018-12-07T10:05:24.488Z,84.75
2018-12-07T10:06:24.477Z,83.73
2018-12-07T10:07:24.458Z,84.55
2018-12-07T10:08:24.467Z,84.80
2018-12-07T10:09:24.465Z,84.18
2018-12-07T10:10:24.437Z,85.06
2018-12-07T10:11:24.421Z,84.59
2018-12-07T10:12:24.403Z,84.55
2018-12-07T10:13:24.401Z,84.75
2018-12-07T10:14:24.382Z,84.66
2018-12-07T10:15:24.427Z,84.75
2018-12-07T10:16:24.415Z,84.90
2018-12-07T10:17:24.356Z,84.86
2018-12-07T10:18:24.338Z,84.66
2018-12-07T10:19:24.320Z,84.96
2018-12-07T10:20:24.315Z,84.75
2018-12-07T10:21:24.332Z,84.55
2018-12-07T10:22:24.345Z,84.34
2018-12-07T10:23:24.316Z,84.75
2018-12-07T10:24:24.274Z,84.86
2018-12-07T10:25:24.277Z,84.25
2018-12-07T10:26:24.253Z,84.45
2018-12-07T10:27:24.249Z,83.94
2018-12-07T10:28:24.224Z,84.45
2018-12-07T10:29:24.217Z,84.14
2018-12-07T10:30:24.227Z,83.94
2018-12-07T10:31:24.190Z,83.53
2018-12-07T10:32:24.227Z,83.63
2018-12-07T10:33:24.178Z,83.94
2018-12-07T10:34:24.171Z,83.73
2018-12-07T10:35:24.158Z,83.23
2018-12-07T10:36:24.146Z,83.73
2018-12-07T10:37:24.132Z,83.23
2018-12-07T10:38:24.156Z,84.11
2018-12-07T10:39:24.104Z,83.63
2018-12-07T10:40:24.095Z,83.63
2018-12-07T10:41:24.093Z,83.63
2018-12-07T10:42:24.084Z,82.92
2018-12-07T10:43:24.093Z,83.94
2018-12-07T10:44:24.070Z,83.63
2018-12-07T10:45:24.042Z,83.63
2018-12-07T10:46:24.037Z,83.63
2018-12-07T10:47:24.024Z,83.94
2018-12-07T10:48:24.019Z,84.14
2018-12-07T10:49:23.999Z,84.34
2018-12-07T10:50:24.006Z,84.04
2018-12-07T10:51:23.974Z,82.82
2018-12-07T10:52:23.961Z,83.53
2018-12-07T10:53:24.001Z,83.33
2018-12-07T10:54:23.955Z,83.84
2018-12-07T10:55:23.935Z,83.84
2018-12-07T10:56:23.926Z,83.53
2018-12-07T10:57:23.915Z,82.41
2018-12-07T10:58:23.908Z,83.23
2018-12-07T10:59:23.890Z,82.71
2018-12-07T11:00:23.877Z,82.71
2018-12-07T11:01:23.903Z,83.43
2018-12-07T11:02:23.857Z,83.02
2018-12-07T11:03:23.858Z,82.31
2018-12-07T11:04:23.832Z,82.92
2018-12-07T11:05:23.829Z,83.63
2018-12-07T11:06:23.822Z,83.12
2018-12-07T11:07:23.830Z,82.82
2018-12-07T11:08:23.790Z,82.71
2018-12-07T11:09:23.783Z,82.61
2018-12-07T11:10:23.784Z,83.12
2018-12-07T11:11:23.754Z,82.51
2018-12-07T11:12:23.761Z,82.41
2018-12-07T11:13:23.901Z,81.70
2018-12-07T11:14:23.729Z,82.21
2018-12-07T11:15:23.715Z,82.31
2018-12-07T11:16:23.719Z,81.18
2018-12-07T11:17:23.742Z,82.21
2018-12-07T11:18:23.692Z,82.21
2018-12-07T11:19:23.671Z,81.80
2018-12-07T11:20:23.657Z,82.61
2018-12-07T11:21:23.710Z,83.84
2018-12-07T11:22:23.652Z,83.23
2018-12-07T11:23:23.623Z,82.10
2018-12-07T11:24:23.624Z,82.71
2018-12-07T11:25:23.604Z,82.41
2018-12-07T11:26:25.451Z,83.12
2018-12-07T11:27:23.586Z,82.17
2018-12-07T11:28:23.605Z,82.92
2018-12-07T11:29:23.562Z,81.70
2018-12-07T11:30:23.553Z,82.41
2018-12-07T11:31:23.552Z,83.53
2018-12-07T11:32:23.525Z,82.10
2018-12-07T11:33:23.525Z,81.90
2018-12-07T11:34:23.537Z,82.51
2018-12-07T11:35:23.494Z,81.18
2018-12-07T11:36:23.480Z,82.21
2018-12-07T11:37:23.478Z,82.00
2018-12-07T11:38:23.466Z,81.18
2018-12-07T11:39:23.490Z,82.31
2018-12-07T11:40:23.444Z,82.17
2018-12-07T11:41:23.438Z,81.29
2018-12-07T11:42:23.422Z,81.09
2018-12-07T11:43:23.400Z,81.29
2018-12-07T11:44:23.392Z,81.49
2018-12-07T11:45:23.444Z,81.09
2018-12-07T11:46:23.418Z,82.10
2018-12-07T11:47:23.384Z,81.25
2018-12-07T11:48:23.351Z,80.98
2018-12-07T11:49:23.340Z,81.09
2018-12-07T11:50:23.332Z,81.15
2018-12-07T11:51:23.338Z,81.86
2018-12-07T11:52:23.353Z,81.25
2018-12-07T11:53:23.300Z,81.25
2018-12-07T11:54:23.279Z,80.94
2018-12-07T11:55:23.272Z,80.84
2018-12-07T11:56:23.265Z,80.54
2018-12-07T11:57:23.265Z,81.15
2018-12-07T11:58:23.255Z,80.64
2018-12-07T11:59:23.252Z,80.74
2018-12-07T12:00:23.246Z,79.82
2018-12-07T12:01:23.224Z,80.70
2018-12-07T12:02:26.313Z,80.91
2018-12-07T12:03:23.189Z,80.80
2018-12-07T12:04:23.176Z,81.21
2018-12-07T12:05:23.172Z,80.54
2018-12-07T12:06:23.162Z,80.50
2018-12-07T12:07:23.150Z,80.84
2018-12-07T12:08:23.134Z,79.79
2018-12-07T12:09:23.127Z,79.68
2018-12-07T12:10:23.167Z,79.89
2018-12-07T12:11:23.106Z,80.09
2018-12-07T12:12:23.109Z,79.89
2018-12-07T12:13:23.083Z,79.89
2018-12-07T12:14:23.074Z,79.89
2018-12-07T12:15:23.062Z,80.19
2018-12-07T12:16:23.041Z,79.58
2018-12-07T12:17:24.061Z,80.70
2018-12-07T12:18:23.071Z,80.09
2018-12-07T12:19:23.017Z,79.79
2018-12-07T12:20:23.025Z,80.19
2018-12-07T12:21:22.993Z,79.58
2018-12-07T12:22:22.977Z,79.89
2018-12-07T12:23:22.977Z,80.36
2018-12-07T12:24:22.981Z,79.44
2018-12-07T12:25:22.979Z,79.85
2018-12-07T12:26:22.929Z,79.44
2018-12-07T12:27:22.918Z,80.26
2018-12-07T12:28:22.910Z,79.54
2018-12-07T12:29:22.922Z,79.14
2018-12-07T12:30:22.904Z,78.73
2018-12-07T12:31:22.927Z,79.64
2018-12-07T12:32:22.871Z,79.44
2018-12-07T12:33:22.865Z,79.75
2018-12-07T12:34:22.860Z,78.53
2018-12-07T12:35:22.866Z,79.14
2018-12-07T12:36:22.822Z,79.64
2018-12-07T12:37:22.819Z,79.54
2018-12-07T12:38:22.833Z,79.64
2018-12-07T12:39:22.789Z,79.99
2018-12-07T12:40:22.780Z,79.68
2018-12-07T12:41:22.898Z,80.40
2018-12-07T12:42:22.775Z,79.68
2018-12-07T12:43:22.762Z,80.29
2018-12-07T12:44:22.741Z,79.89
2018-12-07T12:45:22.770Z,80.40
2018-12-07T12:46:22.713Z,79.79
2018-12-07T12:47:22.700Z,80.02
2018-12-07T12:48:22.709Z,79.93
2018-12-07T12:49:22.683Z,80.09
2018-12-07T12:50:22.692Z,80.19
2018-12-07T12:51:22.664Z,80.64
2018-12-07T12:52:22.653Z,80.13